Time;durP1;ratioP1;P1;durP2;ratioP2;P2;SDS_P1;SDS_P2;PMS_P1;PMS_P2;Temp;Humidity;BMP_temperature;BMP_pressure;BME280_temperature;BME280_humidity;BME280_pressure;Samples;Min_cycle;Max_cycle;Signal;HPM_P1;HPM_P2
2021/07/28 00:02:04;;;;;;;7.97;6.88;;;20.60;99.90;;;;;;5020036;28;20484;-54
2021/07/28 00:04:40;;;;;;;9.15;8.32;;;20.60;99.90;;;;;;5012710;28;20184;-54
2021/07/28 00:07:07;;;;;;;7.88;7.07;;;20.60;99.90;;;;;;5018828;28;20178;-54
2021/07/28 00:09:33;;;;;;;8.13;7.32;;;20.60;99.90;;;;;;5016338;28;20196;-53
2021/07/28 00:11:59;;;;;;;9.10;8.00;;;20.50;99.90;;;;;;5018968;28;20214;-54
2021/07/28 00:14:24;;;;;;;8.40;7.60;;;20.40;99.90;;;;;;5028533;28;20193;-53
2021/07/28 00:16:50;;;;;;;8.17;7.47;;;20.40;99.90;;;;;;5012656;28;20225;-54
2021/07/28 00:19:22;;;;;;;9.37;8.00;;;20.40;99.90;;;;;;5013376;28;20210;-56
2021/07/28 00:24:35;;;;;;;8.52;7.57;;;20.00;99.90;;;;;;5030109;28;20225;-54
2021/07/28 00:27:02;;;;;;;8.38;7.57;;;20.00;99.90;;;;;;5011797;28;20186;-54
2021/07/28 00:29:28;;;;;;;8.88;7.97;;;20.00;99.90;;;;;;5020049;28;20229;-54
2021/07/28 00:31:55;;;;;;;8.60;7.75;;;20.10;99.90;;;;;;5014724;28;20202;-54
2021/07/28 00:34:20;;;;;;;9.13;8.15;;;20.20;99.90;;;;;;5001373;28;20179;-54
2021/07/28 00:36:46;;;;;;;9.17;8.30;;;20.20;99.90;;;;;;5016114;28;20339;-54
2021/07/28 00:39:12;;;;;;;8.97;8.10;;;20.30;99.90;;;;;;5017988;28;20194;-54
2021/07/28 00:41:45;;;;;;;8.80;7.90;;;20.30;99.90;;;;;;5020168;28;20288;-54
2021/07/28 00:44:14;;;;;;;8.40;7.70;;;20.40;99.90;;;;;;5013803;28;20232;-54
2021/07/28 00:46:39;;;;;;;7.95;7.25;;;20.30;99.90;;;;;;5012244;28;20187;-55
2021/07/28 00:49:06;;;;;;;8.47;7.73;;;20.40;99.90;;;;;;5019532;28;20200;-54
2021/07/28 00:51:32;;;;;;;6.75;6.25;;;20.30;99.90;;;;;;5019927;28;20460;-54
2021/07/28 00:53:58;;;;;;;7.60;6.90;;;20.30;99.90;;;;;;5017277;28;20182;-54
2021/07/28 00:56:26;;;;;;;7.30;6.60;;;20.30;99.90;;;;;;5014281;28;20240;-54
2021/07/28 00:58:54;;;;;;;6.85;6.25;;;20.30;99.90;;;;;;5011871;28;20433;-55
2021/07/28 01:01:20;;;;;;;7.07;6.47;;;20.30;99.90;;;;;;5012238;28;20242;-54
2021/07/28 01:03:45;;;;;;;6.73;6.00;;;20.30;99.90;;;;;;5021803;28;20264;-54
2021/07/28 01:06:11;;;;;;;7.27;6.57;;;20.30;99.90;;;;;;5015883;28;20640;-54
2021/07/28 01:08:36;;;;;;;6.80;6.20;;;20.30;99.90;;;;;;5017534;28;20293;-55
2021/07/28 01:11:06;;;;;;;6.47;5.87;;;20.30;99.90;;;;;;5008530;28;20636;-55
2021/07/28 01:13:35;;;;;;;7.15;6.55;;;20.30;99.90;;;;;;5012083;28;20215;-54
2021/07/28 01:16:12;;;;;;;6.93;6.32;;;20.30;99.90;;;;;;5023886;28;20207;-54
2021/07/28 01:18:38;;;;;;;7.57;6.88;;;20.30;99.90;;;;;;5015329;28;20196;-54
2021/07/28 01:21:08;;;;;;;7.60;7.00;;;20.20;99.90;;;;;;5031430;28;20305;-55
2021/07/28 01:23:34;;;;;;;7.78;7.07;;;20.20;99.90;;;;;;5012832;28;20487;-55
2021/07/28 01:26:04;;;;;;;7.68;6.97;;;20.20;99.90;;;;;;5014879;28;20178;-56
2021/07/28 01:28:32;;;;;;;7.40;6.70;;;20.20;99.90;;;;;;5015562;28;20657;-55
2021/07/28 01:31:10;;;;;;;8.35;7.57;;;20.20;99.90;;;;;;5013876;28;20221;-55
2021/07/28 01:33:38;;;;;;;7.78;7.18;;;20.10;99.90;;;;;;5015561;28;20229;-54
2021/07/28 01:36:05;;;;;;;7.85;7.15;;;20.10;99.90;;;;;;5030832;28;20197;-55
2021/07/28 01:38:32;;;;;;;7.70;7.00;;;20.00;99.90;;;;;;5013010;28;20178;-55
2021/07/28 01:41:01;;;;;;;7.50;6.80;;;20.10;99.90;;;;;;5013747;28;20214;-55
2021/07/28 01:43:28;;;;;;;7.63;6.93;;;20.10;99.90;;;;;;5009843;28;20186;-55
2021/07/28 01:45:55;;;;;;;8.65;7.95;;;20.00;99.90;;;;;;5013285;28;20193;-55
2021/07/28 01:48:21;;;;;;;8.27;7.43;;;20.00;99.90;;;;;;5020070;28;20557;-54
2021/07/28 01:50:47;;;;;;;9.70;8.80;;;19.80;99.90;;;;;;5006372;28;20670;-55
2021/07/28 01:53:14;;;;;;;8.90;8.10;;;19.70;99.90;;;;;;5018818;28;20182;-55
2021/07/28 01:55:41;;;;;;;9.57;8.73;;;19.60;99.90;;;;;;5011012;28;20240;-55
2021/07/28 01:58:07;;;;;;;7.90;7.30;;;19.60;99.90;;;;;;5019568;28;20190;-54
2021/07/28 02:00:33;;;;;;;9.05;8.25;;;19.60;99.90;;;;;;5011670;28;20824;-54
2021/07/28 02:03:04;;;;;;;7.00;6.30;;;19.70;99.90;;;;;;5013022;28;20182;-55
2021/07/28 02:05:42;;;;;;;7.53;6.82;;;19.80;99.90;;;;;;5019923;28;20190;-54
2021/07/28 02:08:10;;;;;;;6.70;6.10;;;19.80;99.90;;;;;;5015137;28;20556;-55
2021/07/28 02:10:38;;;;;;;7.40;6.70;;;19.80;99.90;;;;;;5016407;28;20694;-55
2021/07/28 02:13:05;;;;;;;8.05;7.35;;;19.70;99.90;;;;;;5016925;28;20655;-55
2021/07/28 02:15:32;;;;;;;7.28;6.57;;;19.80;99.90;;;;;;5022099;28;20178;-55
2021/07/28 02:17:59;;;;;;;7.63;6.93;;;19.80;99.90;;;;;;5034538;28;20182;-54
2021/07/28 02:20:26;;;;;;;7.80;6.60;;;19.70;99.90;;;;;;5010869;28;20644;-55
2021/07/28 02:22:52;;;;;;;7.10;6.50;;;19.80;99.90;;;;;;5017786;28;20174;-55
2021/07/28 02:25:18;;;;;;;6.50;5.90;;;19.80;99.90;;;;;;5017922;28;20261;-54
2021/07/28 02:27:44;;;;;;;6.63;5.78;;;19.80;99.90;;;;;;5019951;28;20731;-54
2021/07/28 02:30:12;;;;;;;6.95;6.32;;;19.90;99.90;;;;;;5024327;28;20291;-55
2021/07/28 02:32:38;;;;;;;5.80;5.30;;;19.80;99.90;;;;;;5019811;28;20178;-55
2021/07/28 02:35:05;;;;;;;5.95;5.45;;;19.80;99.90;;;;;;5018316;28;20185;-55
2021/07/28 02:37:31;;;;;;;5.53;5.03;;;19.80;99.90;;;;;;5011840;28;20205;-55
2021/07/28 02:39:57;;;;;;;6.10;5.60;;;19.80;99.90;;;;;;5016763;28;20209;-55
2021/07/28 02:42:23;;;;;;;6.83;5.97;;;19.80;99.90;;;;;;5014168;28;20284;-54
2021/07/28 02:44:48;;;;;;;5.43;4.93;;;19.80;99.90;;;;;;5016856;28;20178;-55
2021/07/28 02:47:14;;;;;;;5.70;5.20;;;19.80;99.90;;;;;;5029920;28;20190;-55
2021/07/28 02:49:39;;;;;;;5.37;4.87;;;19.80;99.90;;;;;;5013799;28;20182;-55
2021/07/28 02:52:05;;;;;;;5.83;5.20;;;19.80;99.90;;;;;;5012517;28;20238;-55
2021/07/28 02:54:31;;;;;;;5.70;5.20;;;19.80;99.90;;;;;;5014926;28;20732;-54
2021/07/28 02:56:57;;;;;;;5.97;5.47;;;19.70;99.90;;;;;;5009450;28;20526;-54
2021/07/28 02:59:23;;;;;;;7.33;6.50;;;19.70;99.90;;;;;;5013588;28;20213;-54
2021/07/28 03:01:49;;;;;;;5.50;5.00;;;19.70;99.90;;;;;;5019735;28;20198;-54
2021/07/28 03:04:16;;;;;;;5.63;5.13;;;19.70;99.90;;;;;;5014024;28;20290;-54
2021/07/28 03:06:41;;;;;;;6.78;5.80;;;19.80;99.90;;;;;;5016084;28;20175;-54
2021/07/28 03:09:07;;;;;;;6.77;6.17;;;19.70;99.90;;;;;;5011106;28;20179;-54
2021/07/28 03:11:33;;;;;;;8.30;5.77;;;19.60;99.90;;;;;;5010984;28;20316;-55
2021/07/28 03:13:59;;;;;;;7.00;6.30;;;19.60;99.90;;;;;;5015614;28;20599;-54
2021/07/28 03:16:24;;;;;;;6.20;5.70;;;19.60;99.90;;;;;;5009508;28;20182;-54
2021/07/28 03:18:50;;;;;;;6.70;5.80;;;19.50;99.90;;;;;;5013072;28;20181;-54
2021/07/28 03:21:16;;;;;;;7.93;5.77;;;19.40;99.90;;;;;;5020762;28;20225;-54
2021/07/28 03:23:41;;;;;;;6.73;6.23;;;19.30;99.90;;;;;;5018937;28;20273;-54
2021/07/28 03:26:07;;;;;;;6.90;6.23;;;19.20;99.90;;;;;;5015115;28;20201;-54
2021/07/28 03:28:33;;;;;;;7.23;6.53;;;19.20;99.90;;;;;;5013969;28;20178;-55
2021/07/28 03:30:59;;;;;;;6.82;6.13;;;19.20;99.90;;;;;;5013553;28;20749;-55
2021/07/28 03:33:24;;;;;;;7.53;6.93;;;19.10;99.90;;;;;;5020720;28;20213;-55
2021/07/28 03:35:50;;;;;;;7.43;6.73;;;19.10;99.90;;;;;;5015592;28;20186;-54
2021/07/28 03:38:19;;;;;;;6.88;6.28;;;19.10;99.90;;;;;;5017181;28;20610;-54
2021/07/28 03:40:45;;;;;;;7.78;6.88;;;19.00;99.90;;;;;;5015981;28;20576;-54
2021/07/28 03:43:10;;;;;;;6.80;6.10;;;19.00;99.90;;;;;;5012134;28;20179;-55
2021/07/28 03:45:36;;;;;;;7.17;6.30;;;19.00;99.90;;;;;;5016300;28;20218;-54
2021/07/28 03:48:02;;;;;;;7.13;6.53;;;18.90;99.90;;;;;;5022727;28;20187;-54
2021/07/28 03:50:28;;;;;;;7.33;6.43;;;18.90;99.90;;;;;;5024845;28;20233;-54
2021/07/28 03:52:58;;;;;;;7.90;7.10;;;18.90;99.90;;;;;;5011900;28;20441;-55
2021/07/28 03:55:24;;;;;;;7.35;6.75;;;18.80;99.90;;;;;;5012224;28;20178;-54
2021/07/28 03:57:50;;;;;;;7.95;6.45;;;18.80;99.90;;;;;;5012618;28;20661;-54
2021/07/28 04:00:16;;;;;;;7.03;6.30;;;18.80;99.90;;;;;;5018045;28;20217;-55
2021/07/28 04:02:41;;;;;;;6.88;6.28;;;18.90;99.90;;;;;;5015032;28;20780;-55
2021/07/28 04:05:08;;;;;;;7.73;6.93;;;18.90;99.90;;;;;;5017130;28;20208;-55
2021/07/28 04:07:34;;;;;;;7.78;6.88;;;18.90;99.90;;;;;;5012943;28;20179;-54
2021/07/28 04:10:00;;;;;;;7.30;6.60;;;18.90;99.90;;;;;;5017893;28;20240;-54
2021/07/28 04:12:25;;;;;;;7.40;6.70;;;19.00;99.90;;;;;;5011936;28;20227;-55
2021/07/28 04:14:51;;;;;;;7.30;6.70;;;19.00;99.90;;;;;;5014390;28;20182;-55
2021/07/28 04:17:16;;;;;;;7.27;6.57;;;19.10;99.90;;;;;;5016268;28;20679;-55
2021/07/28 04:19:48;;;;;;;7.63;6.83;;;19.00;99.90;;;;;;5019669;28;20206;-54
2021/07/28 04:22:17;;;;;;;8.25;7.15;;;18.90;99.90;;;;;;5008900;28;20237;-54
2021/07/28 04:24:43;;;;;;;7.72;6.90;;;18.80;99.90;;;;;;5015235;28;20550;-54
2021/07/28 04:27:08;;;;;;;7.30;6.60;;;18.80;99.90;;;;;;5011961;28;20182;-54
2021/07/28 04:29:34;;;;;;;7.67;6.97;;;19.00;99.90;;;;;;5016367;28;20624;-55
2021/07/28 04:31:59;;;;;;;6.93;6.33;;;19.00;99.90;;;;;;5006255;28;20205;-54
2021/07/28 04:34:25;;;;;;;7.00;6.30;;;19.10;99.90;;;;;;5019568;28;20186;-55
2021/07/28 04:36:54;;;;;;;7.20;6.50;;;19.10;99.90;;;;;;5018661;28;20185;-55
2021/07/28 04:39:19;;;;;;;7.15;6.45;;;19.20;99.90;;;;;;5005385;28;20186;-54
2021/07/28 04:41:45;;;;;;;6.37;5.80;;;19.20;99.90;;;;;;5028851;28;20201;-55
2021/07/28 04:44:11;;;;;;;7.10;6.40;;;19.10;99.90;;;;;;5013686;28;20273;-54
2021/07/28 04:46:36;;;;;;;7.33;6.60;;;19.20;99.90;;;;;;5010583;28;20198;-55
2021/07/28 04:49:02;;;;;;;6.23;5.63;;;19.20;99.90;;;;;;5015623;28;20439;-55
2021/07/28 04:51:28;;;;;;;7.17;6.57;;;19.30;99.90;;;;;;5010221;28;20209;-54
2021/07/28 04:53:53;;;;;;;8.77;7.87;;;19.30;99.90;;;;;;5016940;28;20185;-55
2021/07/28 04:56:19;;;;;;;7.13;6.40;;;19.30;99.90;;;;;;5009716;28;20186;-55
2021/07/28 04:58:45;;;;;;;8.07;7.13;;;19.30;99.90;;;;;;5014983;28;20269;-55
2021/07/28 05:01:11;;;;;;;7.80;7.17;;;19.30;99.90;;;;;;5013161;28;20480;-54
2021/07/28 05:03:36;;;;;;;7.30;6.70;;;19.30;99.90;;;;;;5012098;28;20264;-55
2021/07/28 05:06:02;;;;;;;7.67;6.30;;;19.30;99.90;;;;;;5018929;28;20440;-55
2021/07/28 05:08:28;;;;;;;7.10;6.40;;;19.30;99.90;;;;;;5013495;28;20192;-55
2021/07/28 05:10:53;;;;;;;7.40;6.67;;;19.40;99.90;;;;;;5014548;28;20631;-55
2021/07/28 05:13:19;;;;;;;8.40;6.40;;;19.50;99.90;;;;;;5016803;28;20226;-55
2021/07/28 05:15:47;;;;;;;6.63;6.00;;;19.50;99.90;;;;;;5015509;28;20182;-55
2021/07/28 05:18:13;;;;;;;8.10;7.28;;;19.80;99.90;;;;;;5016757;28;20186;-54
2021/07/28 05:20:39;;;;;;;6.60;6.00;;;19.50;99.90;;;;;;5021115;28;20228;-55
2021/07/28 05:23:04;;;;;;;6.47;5.97;;;19.50;99.90;;;;;;5029577;28;20193;-55
2021/07/28 05:25:30;;;;;;;7.50;6.90;;;19.50;99.90;;;;;;5017853;28;20190;-55
2021/07/28 05:27:56;;;;;;;7.00;6.27;;;19.50;99.90;;;;;;5014287;28;20715;-55
2021/07/28 05:30:22;;;;;;;7.03;6.33;;;19.60;99.90;;;;;;5009870;28;20214;-56
2021/07/28 05:32:47;;;;;;;7.97;7.17;;;19.70;99.90;;;;;;5016628;28;20479;-57
2021/07/28 05:35:13;;;;;;;8.03;7.33;;;19.40;99.90;;;;;;5014660;28;20455;-58
2021/07/28 05:37:39;;;;;;;15.37;10.00;;;19.40;99.90;;;;;;5018045;28;20200;-58
2021/07/28 05:40:05;;;;;;;9.20;6.67;;;19.40;99.90;;;;;;5014227;28;20681;-56
2021/07/28 05:42:31;;;;;;;6.55;6.05;;;19.40;99.90;;;;;;5015588;28;20712;-59
2021/07/28 05:44:56;;;;;;;7.00;6.10;;;19.50;99.90;;;;;;5015234;28;20179;-56
2021/07/28 05:47:22;;;;;;;6.87;6.20;;;19.50;99.90;;;;;;5012425;28;20210;-55
2021/07/28 05:49:48;;;;;;;8.37;6.70;;;19.40;99.90;;;;;;5014384;28;20586;-57
2021/07/28 05:52:13;;;;;;;7.80;6.30;;;19.50;99.90;;;;;;5010978;28;20188;-56
2021/07/28 05:54:39;;;;;;;7.27;6.13;;;19.50;99.90;;;;;;5005415;28;20190;-58
2021/07/28 05:57:04;;;;;;;7.07;6.47;;;19.60;99.90;;;;;;5030634;28;20178;-56
2021/07/28 05:59:30;;;;;;;7.20;6.60;;;19.80;99.90;;;;;;5008104;28;20678;-56
2021/07/28 06:01:56;;;;;;;8.30;6.93;;;19.80;99.90;;;;;;5011544;28;20890;-57
2021/07/28 06:04:21;;;;;;;7.60;6.80;;;19.80;99.90;;;;;;5013596;28;20178;-56
2021/07/28 06:06:47;;;;;;;7.53;6.80;;;19.90;99.90;;;;;;5009814;28;20174;-57
2021/07/28 06:09:12;;;;;;;7.20;6.50;;;20.00;99.90;;;;;;5013324;28;20182;-56
2021/07/28 06:11:38;;;;;;;7.80;6.63;;;20.00;99.90;;;;;;5015827;28;20263;-56
2021/07/28 06:14:04;;;;;;;9.67;7.60;;;20.10;99.90;;;;;;5009917;28;20182;-57
2021/07/28 06:16:29;;;;;;;6.13;5.50;;;20.40;99.90;;;;;;5016909;28;20231;-57
2021/07/28 06:18:55;;;;;;;6.40;5.90;;;20.20;99.90;;;;;;5014378;28;20676;-57
2021/07/28 06:21:20;;;;;;;6.50;5.83;;;20.20;99.90;;;;;;5029071;28;20275;-57
2021/07/28 06:23:46;;;;;;;6.50;5.87;;;20.30;99.90;;;;;;5013146;28;20239;-57
2021/07/28 06:26:12;;;;;;;6.13;5.57;;;20.30;99.90;;;;;;5013672;28;20198;-56
2021/07/28 06:28:40;;;;;;;6.03;5.33;;;20.40;99.90;;;;;;5014285;28;20182;-55
2021/07/28 06:31:06;;;;;;;6.22;5.63;;;20.50;99.90;;;;;;5010077;28;20213;-56
2021/07/28 06:33:32;;;;;;;4.90;4.50;;;20.50;99.90;;;;;;5028656;28;20183;-55
2021/07/28 06:35:57;;;;;;;5.67;5.20;;;20.60;99.90;;;;;;5028250;28;20224;-56
2021/07/28 06:38:23;;;;;;;7.10;6.40;;;20.60;99.90;;;;;;5027824;28;20191;-56
2021/07/28 06:40:49;;;;;;;6.03;5.53;;;20.60;99.90;;;;;;5011031;28;20217;-56
2021/07/28 06:43:15;;;;;;;6.30;5.70;;;20.50;99.90;;;;;;5013957;28;20184;-56
2021/07/28 06:45:40;;;;;;;5.80;5.20;;;20.50;99.90;;;;;;5010452;28;20445;-56
2021/07/28 06:48:06;;;;;;;5.73;5.23;;;20.50;99.90;;;;;;5016864;28;20198;-55
2021/07/28 06:50:32;;;;;;;5.40;4.90;;;20.40;99.90;;;;;;5006927;28;20237;-56
2021/07/28 06:52:58;;;;;;;5.80;5.23;;;20.40;99.90;;;;;;5017467;28;20194;-57
2021/07/28 06:55:24;;;;;;;5.07;4.67;;;20.40;99.90;;;;;;5014846;28;20448;-57
2021/07/28 06:57:49;;;;;;;5.70;5.20;;;20.30;99.90;;;;;;5013948;28;20446;-56
2021/07/28 07:00:15;;;;;;;7.77;5.80;;;20.20;99.90;;;;;;5010336;28;20220;-56
2021/07/28 07:02:41;;;;;;;7.00;5.60;;;20.00;99.90;;;;;;5008113;28;20178;-57
2021/07/28 07:05:11;;;;;;;8.90;5.37;;;20.00;99.90;;;;;;5011391;28;20186;-56
2021/07/28 07:07:36;;;;;;;5.90;5.40;;;20.00;99.90;;;;;;5024064;28;20240;-56
2021/07/28 07:10:05;;;;;;;5.77;5.27;;;20.00;99.90;;;;;;5016420;28;20578;-57
2021/07/28 07:12:30;;;;;;;4.97;4.57;;;20.00;99.90;;;;;;5010899;28;20440;-57
2021/07/28 07:14:56;;;;;;;5.63;5.13;;;20.00;99.90;;;;;;5005233;28;20182;-57
2021/07/28 07:17:21;;;;;;;5.57;5.07;;;19.90;99.90;;;;;;5009668;28;20631;-57
2021/07/28 07:19:47;;;;;;;5.97;5.43;;;19.90;99.90;;;;;;5013012;28;20212;-57
2021/07/28 07:22:12;;;;;;;6.10;5.50;;;20.10;99.90;;;;;;5010229;28;20178;-57
2021/07/28 07:24:38;;;;;;;6.23;5.60;;;20.10;99.90;;;;;;5009748;28;20625;-56
2021/07/28 07:27:04;;;;;;;7.90;5.35;;;20.10;99.90;;;;;;5012588;28;20178;-58
2021/07/28 07:29:30;;;;;;;6.07;5.30;;;20.10;99.90;;;;;;5007963;28;20183;-58
2021/07/28 07:31:56;;;;;;;5.77;5.27;;;20.00;99.90;;;;;;5028153;28;20753;-58
2021/07/28 07:34:21;;;;;;;6.70;6.00;;;20.10;99.90;;;;;;5014274;28;20643;-57
2021/07/28 07:36:47;;;;;;;6.20;5.70;;;20.10;99.90;;;;;;5010248;28;20666;-58
2021/07/28 07:39:13;;;;;;;6.50;5.80;;;20.10;99.90;;;;;;5012288;28;20259;-56
2021/07/28 07:41:38;;;;;;;6.43;5.93;;;20.10;99.90;;;;;;5006500;28;20217;-56
2021/07/28 07:44:04;;;;;;;6.77;5.13;;;20.30;99.90;;;;;;5013715;28;20292;-58
2021/07/28 07:46:30;;;;;;;6.43;5.20;;;20.40;99.90;;;;;;5009859;28;20634;-56
2021/07/28 07:48:56;;;;;;;6.53;5.93;;;20.40;99.90;;;;;;5011336;28;20765;-58
2021/07/28 07:51:22;;;;;;;7.55;4.95;;;20.50;99.90;;;;;;5005263;28;20209;-62
2021/07/28 07:53:48;;;;;;;6.53;5.47;;;20.40;99.90;;;;;;5023580;28;20236;-65
2021/07/28 07:56:14;;;;;;;7.40;6.70;;;20.30;99.90;;;;;;5009534;28;20186;-64
2021/07/28 07:58:40;;;;;;;6.10;5.60;;;20.30;99.90;;;;;;5010214;28;20244;-63
2021/07/28 08:01:09;;;;;;;6.50;6.00;;;20.20;99.90;;;;;;5007442;28;20566;-62
2021/07/28 08:03:42;;;;;;;6.78;6.07;;;20.20;99.90;;;;;;5003405;28;20179;-62
2021/07/28 08:06:09;;;;;;;6.07;5.57;;;20.10;99.90;;;;;;5010398;28;20229;-64
2021/07/28 08:08:35;;;;;;;6.50;5.90;;;20.00;99.90;;;;;;5018045;28;20179;-64
2021/07/28 08:11:06;;;;;;;6.97;6.28;;;19.80;99.90;;;;;;5009926;28;20202;-63
2021/07/28 08:13:32;;;;;;;6.20;5.60;;;19.80;99.90;;;;;;5010522;28;20207;-58
2021/07/28 08:15:57;;;;;;;6.73;6.03;;;19.60;99.90;;;;;;4996949;28;20727;-59
2021/07/28 08:18:23;;;;;;;8.20;5.63;;;19.70;99.90;;;;;;5013963;28;20630;-57
2021/07/28 08:20:49;;;;;;;6.53;5.93;;;19.70;99.90;;;;;;5008806;28;20213;-59
2021/07/28 08:23:15;;;;;;;6.27;5.67;;;19.70;99.90;;;;;;5012012;28;20332;-57
2021/07/28 08:25:40;;;;;;;7.80;7.03;;;19.60;99.90;;;;;;5015723;28;20443;-66
2021/07/28 08:28:06;;;;;;;6.90;6.17;;;19.50;99.90;;;;;;5020725;28;20475;-63
2021/07/28 08:30:32;;;;;;;5.80;5.20;;;19.40;99.90;;;;;;5010463;28;20209;-62
2021/07/28 08:32:57;;;;;;;6.20;5.67;;;19.60;99.90;;;;;;5018029;28;20614;-59
2021/07/28 08:35:23;;;;;;;6.40;5.60;;;19.70;99.90;;;;;;5012993;28;20407;-63
2021/07/28 08:37:48;;;;;;;8.50;6.30;;;19.70;99.90;;;;;;5010805;28;20193;-64
2021/07/28 08:40:16;;;;;;;6.27;5.77;;;19.90;99.90;;;;;;5017337;28;20237;-65
2021/07/28 08:42:47;;;;;;;5.82;5.22;;;20.00;99.90;;;;;;5030573;28;20205;-65
2021/07/28 08:45:15;;;;;;;7.30;5.90;;;20.10;99.90;;;;;;5022953;28;20340;-58
2021/07/28 08:47:46;;;;;;;5.63;5.00;;;20.00;99.90;;;;;;5026277;28;20182;-62
2021/07/28 08:50:13;;;;;;;5.70;5.20;;;20.10;99.90;;;;;;5018183;28;20202;-61
2021/07/28 08:52:40;;;;;;;9.82;8.93;;;20.20;99.90;;;;;;5012242;28;20202;-59
2021/07/28 08:55:06;;;;;;;5.80;5.28;;;20.40;99.90;;;;;;5013928;28;20194;-60
2021/07/28 08:57:33;;;;;;;6.03;5.50;;;20.50;99.90;;;;;;5013143;28;20197;-57
2021/07/28 09:00:00;;;;;;;7.65;7.00;;;20.70;99.90;;;;;;5015878;28;20198;-57
2021/07/28 09:02:26;;;;;;;7.93;5.95;;;20.90;99.90;;;;;;5017315;28;20557;-58
2021/07/28 09:04:52;;;;;;;6.10;5.60;;;21.00;99.90;;;;;;5012361;28;20188;-58
2021/07/28 09:07:22;;;;;;;6.57;5.88;;;21.10;99.90;;;;;;5012333;28;20438;-58
2021/07/28 09:09:56;;;;;;;5.80;5.30;;;21.20;99.90;;;;;;5016470;28;20240;-58
2021/07/28 09:12:35;;;;;;;7.15;6.13;;;21.40;99.90;;;;;;5018741;28;20213;-58
2021/07/28 09:15:05;;;;;;;5.65;5.15;;;21.60;99.90;;;;;;5029074;28;20261;-57
2021/07/28 09:17:35;;;;;;;5.73;5.23;;;21.80;99.90;;;;;;5020796;28;20193;-57
2021/07/28 09:20:02;;;;;;;5.30;4.82;;;22.00;99.90;;;;;;5020695;28;20549;-58
2021/07/28 09:22:40;;;;;;;6.13;5.53;;;22.20;99.90;;;;;;5015900;28;20618;-59
2021/07/28 09:25:21;;;;;;;5.23;4.83;;;22.30;99.90;;;;;;5006360;28;21039;-59
2021/07/28 09:27:52;;;;;;;5.60;5.10;;;22.70;99.90;;;;;;5006252;28;20465;-58
2021/07/28 09:30:24;;;;;;;4.97;4.57;;;23.20;99.90;;;;;;5009297;28;20526;-57
2021/07/28 09:32:57;;;;;;;4.70;4.30;;;23.40;99.90;;;;;;5029482;28;20451;-58
2021/07/28 09:35:40;;;;;;;4.70;4.30;;;23.40;99.80;;;;;;5025616;28;20441;-58
2021/07/28 09:38:06;;;;;;;4.77;4.37;;;23.50;99.60;;;;;;5014983;28;20433;-57
2021/07/28 09:40:32;;;;;;;4.70;4.30;;;23.80;99.40;;;;;;5012511;28;20484;-57
2021/07/28 09:43:04;;;;;;;5.40;4.50;;;23.70;98.70;;;;;;5011456;28;20186;-58
2021/07/28 09:45:30;;;;;;;4.63;4.23;;;23.80;98.70;;;;;;5012918;28;20750;-58
2021/07/28 09:47:55;;;;;;;4.77;4.27;;;23.80;98.50;;;;;;5012057;28;20731;-58
2021/07/28 09:50:21;;;;;;;5.10;4.40;;;23.90;98.70;;;;;;5015850;28;20248;-58
2021/07/28 09:52:50;;;;;;;4.97;4.43;;;24.10;98.30;;;;;;5014112;28;20252;-58
2021/07/28 09:55:27;;;;;;;6.77;4.73;;;23.90;98.30;;;;;;5013861;28;20205;-58
2021/07/28 09:57:55;;;;;;;4.67;4.23;;;23.90;98.70;;;;;;5028970;28;20437;-57
2021/07/28 10:00:21;;;;;;;5.80;5.30;;;24.10;98.90;;;;;;5010973;28;20913;-58
2021/07/28 10:02:48;;;;;;;5.30;4.90;;;24.80;97.60;;;;;;5013811;28;20433;-57
2021/07/28 10:05:18;;;;;;;5.30;4.80;;;25.50;96.10;;;;;;5018552;28;20521;-58
2021/07/28 10:07:46;;;;;;;5.03;4.40;;;26.20;95.70;;;;;;5013520;28;20452;-58
2021/07/28 10:10:12;;;;;;;4.30;4.00;;;26.90;93.70;;;;;;5007666;28;20515;-59
2021/07/28 10:12:39;;;;;;;4.80;4.40;;;27.40;91.50;;;;;;5014958;28;20497;-56
2021/07/28 10:15:08;;;;;;;4.60;4.30;;;27.40;91.40;;;;;;5009837;28;20448;-56
2021/07/28 10:17:35;;;;;;;4.70;4.30;;;27.40;90.80;;;;;;5014516;28;20457;-57
2021/07/28 10:20:00;;;;;;;4.70;4.30;;;26.60;91.30;;;;;;5011238;28;20590;-56
2021/07/28 10:22:27;;;;;;;5.93;4.20;;;26.50;91.50;;;;;;5016708;28;20462;-57
2021/07/28 10:24:53;;;;;;;5.20;4.70;;;26.10;92.40;;;;;;5021493;28;20296;-56
2021/07/28 10:27:21;;;;;;;3.93;3.63;;;25.70;92.60;;;;;;5008509;28;20435;-56
2021/07/28 10:29:49;;;;;;;5.00;4.60;;;25.50;93.10;;;;;;5007396;28;20889;-56
2021/07/28 10:32:29;;;;;;;4.40;4.00;;;25.40;93.30;;;;;;5008423;28;20470;-56
2021/07/28 10:35:25;;;;;;;4.40;4.07;;;25.20;93.60;;;;;;5015097;28;20445;-56
2021/07/28 10:37:52;;;;;;;4.23;3.93;;;24.80;93.80;;;;;;5028128;28;20922;-56
2021/07/28 10:40:26;;;;;;;4.63;4.27;;;24.70;94.20;;;;;;5016716;28;20961;-57
2021/07/28 10:42:55;;;;;;;5.27;4.87;;;24.50;94.90;;;;;;5012756;28;20524;-57
2021/07/28 10:45:24;;;;;;;4.37;3.97;;;24.50;95.40;;;;;;5014406;28;20532;-57
2021/07/28 10:47:53;;;;;;;5.20;4.80;;;24.20;95.20;;;;;;5013083;28;21034;-57
2021/07/28 10:50:22;;;;;;;4.40;4.00;;;23.90;95.40;;;;;;5011715;28;20456;-58
2021/07/28 10:52:58;;;;;;;5.73;5.10;;;23.70;96.40;;;;;;5002295;28;20441;-58
2021/07/28 10:55:27;;;;;;;4.67;4.27;;;23.90;96.70;;;;;;5019660;28;20554;-58
2021/07/28 10:57:56;;;;;;;4.40;4.00;;;24.10;95.50;;;;;;5014592;28;20426;-58
2021/07/28 11:00:37;;;;;;;4.93;4.43;;;24.40;95.50;;;;;;5014023;28;20479;-56
2021/07/28 11:03:06;;;;;;;5.80;4.40;;;24.50;95.60;;;;;;5033738;28;20524;-55
2021/07/28 11:05:36;;;;;;;4.83;4.20;;;24.70;95.30;;;;;;5022292;28;20433;-57
2021/07/28 11:08:02;;;;;;;4.57;4.20;;;24.70;94.60;;;;;;5024176;28;20433;-57
2021/07/28 11:10:38;;;;;;;4.63;4.13;;;24.50;94.70;;;;;;5011854;28;20528;-58
2021/07/28 11:13:10;;;;;;;4.60;4.20;;;24.40;95.00;;;;;;5010756;28;20190;-57
2021/07/28 11:15:37;;;;;;;4.53;4.23;;;24.30;95.60;;;;;;5019886;28;20533;-58
2021/07/28 11:18:04;;;;;;;5.97;4.20;;;24.10;95.30;;;;;;5011008;28;20448;-57
2021/07/28 11:20:34;;;;;;;5.47;5.07;;;24.30;95.40;;;;;;5014933;28;20470;-57
2021/07/28 11:23:21;;;;;;;5.80;5.30;;;25.20;94.80;;;;;;5011293;28;20499;-58
2021/07/28 11:25:51;;;;;;;5.40;4.90;;;26.40;92.80;;;;;;5019432;28;20446;-57
2021/07/28 11:28:20;;;;;;;6.10;4.50;;;27.10;91.00;;;;;;5026962;28;20452;-58
2021/07/28 11:31:04;;;;;;;4.37;3.83;;;28.20;87.10;;;;;;5026322;28;20483;-57
2021/07/28 11:33:31;;;;;;;3.87;3.57;;;29.30;82.90;;;;;;5020620;28;20436;-58
2021/07/28 11:35:58;;;;;;;4.67;4.27;;;29.50;79.40;;;;;;5013491;28;20498;-58
2021/07/28 11:38:34;;;;;;;5.50;4.70;;;29.60;78.80;;;;;;5028306;28;20853;-57
2021/07/28 11:41:01;;;;;;;3.90;3.60;;;29.80;77.60;;;;;;5008449;28;20541;-57
2021/07/28 11:43:26;;;;;;;4.27;3.97;;;29.70;77.90;;;;;;5013293;28;20992;-57
2021/07/28 11:45:57;;;;;;;5.40;4.27;;;29.10;78.50;;;;;;5010585;28;20452;-57
2021/07/28 11:48:37;;;;;;;5.33;4.80;;;28.80;80.00;;;;;;5010474;28;20184;-57
2021/07/28 11:51:08;;;;;;;4.67;4.20;;;28.00;82.50;;;;;;5015657;28;20458;-57
2021/07/28 11:53:35;;;;;;;5.10;4.03;;;27.90;84.40;;;;;;5010588;28;21026;-58
2021/07/28 11:56:08;;;;;;;4.20;3.80;;;28.10;80.90;;;;;;5013431;28;20445;-58
2021/07/28 11:58:40;;;;;;;4.83;3.93;;;28.00;80.40;;;;;;5009595;28;20644;-57
2021/07/28 12:01:36;;;;;;;4.87;3.87;;;27.60;82.10;;;;;;5021653;28;21003;-57
2021/07/28 12:04:05;;;;;;;4.43;4.13;;;27.80;81.90;;;;;;4996350;28;20433;-59
2021/07/28 12:06:39;;;;;;;4.37;4.07;;;27.80;81.80;;;;;;5018039;28;20436;-58
2021/07/28 12:09:23;;;;;;;4.00;3.70;;;27.40;82.30;;;;;;5032144;28;20432;-57
2021/07/28 12:11:51;;;;;;;5.33;4.83;;;27.10;83.80;;;;;;5020575;28;20542;-57
2021/07/28 12:14:40;;;;;;;4.37;3.97;;;26.70;85.10;;;;;;5023639;28;20444;-58
2021/07/28 12:17:18;;;;;;;4.30;3.90;;;26.40;86.90;;;;;;5014697;28;20444;-56
2021/07/28 12:20:01;;;;;;;4.27;3.90;;;26.30;86.50;;;;;;5017923;28;20961;-58
2021/07/28 12:22:39;;;;;;;4.67;4.03;;;26.30;86.30;;;;;;5016188;28;20955;-56
2021/07/28 12:25:31;;;;;;;4.10;3.70;;;26.30;87.40;;;;;;5013386;28;20831;-57
2021/07/28 12:27:59;;;;;;;4.63;4.23;;;26.20;87.60;;;;;;5024695;28;20442;-57
2021/07/28 12:30:31;;;;;;;4.20;3.90;;;25.90;88.10;;;;;;5025632;28;20473;-56
2021/07/28 12:33:04;;;;;;;4.50;4.10;;;25.90;88.00;;;;;;5021646;28;20445;-58
2021/07/28 12:35:54;;;;;;;4.23;3.83;;;25.90;89.40;;;;;;5019186;28;20902;-56
2021/07/28 12:38:24;;;;;;;4.50;4.10;;;25.90;88.40;;;;;;5022146;28;20437;-58
2021/07/28 12:41:01;;;;;;;4.30;4.00;;;25.90;87.50;;;;;;5018413;28;20542;-57
2021/07/28 12:43:37;;;;;;;4.37;4.00;;;25.80;87.90;;;;;;5016491;28;20436;-56
2021/07/28 12:46:06;;;;;;;4.43;4.03;;;25.80;87.70;;;;;;5018988;28;20465;-57
2021/07/28 12:48:33;;;;;;;4.20;3.90;;;25.70;89.00;;;;;;5015710;28;20862;-58
2021/07/28 12:51:01;;;;;;;4.60;4.20;;;25.60;90.10;;;;;;5028189;28;20489;-57
2021/07/28 12:53:30;;;;;;;4.90;4.43;;;25.60;88.80;;;;;;5016883;28;20437;-57
2021/07/28 12:55:56;;;;;;;4.10;3.70;;;25.60;89.50;;;;;;5021181;28;20448;-57